createdAt,value
2018-12-27T00:02:16.842Z,11.13
2018-12-27T00:04:59.058Z,14.27
2018-12-27T00:07:41.042Z,14.83
2018-12-27T00:10:23.242Z,14.50
2018-12-27T00:13:05.920Z,14.37
2018-12-27T00:15:48.478Z,18.23
2018-12-27T00:18:30.194Z,13.90
2018-12-27T00:21:12.658Z,14.17
2018-12-27T00:23:54.754Z,12.67
2018-12-27T00:26:36.622Z,13.67
2018-12-27T00:29:18.498Z,13.37
2018-12-27T00:32:00.841Z,13.07
2018-12-27T00:34:42.654Z,12.47
2018-12-27T00:37:25.254Z,13.93
2018-12-27T00:40:07.080Z,11.53
2018-12-27T00:42:49.279Z,13.73
2018-12-27T00:45:31.598Z,13.10
2018-12-27T00:48:13.717Z,13.80
2018-12-27T00:50:55.910Z,11.50
2018-12-27T00:53:37.718Z,11.80
2018-12-27T00:56:20.140Z,12.93
2018-12-27T00:59:01.859Z,13.00
2018-12-27T01:01:43.902Z,12.50
2018-12-27T01:04:25.768Z,13.37
2018-12-27T01:07:07.554Z,14.70
2018-12-27T01:09:49.594Z,12.27
2018-12-27T01:12:31.579Z,13.70
2018-12-27T01:15:13.865Z,13.47
2018-12-27T01:17:55.758Z,13.40
2018-12-27T01:20:38.141Z,12.40
2018-12-27T01:23:20.350Z,11.20
2018-12-27T01:26:02.578Z,12.00
2018-12-27T01:28:44.461Z,11.70
2018-12-27T01:31:26.187Z,11.73
2018-12-27T01:34:07.922Z,11.13
2018-12-27T01:36:50.141Z,10.80
2018-12-27T01:39:32.329Z,13.33
2018-12-27T01:42:14.154Z,12.60
2018-12-27T01:44:56.950Z,13.33
2018-12-27T01:47:39.612Z,14.50
2018-12-27T01:50:21.513Z,11.13
2018-12-27T01:53:03.764Z,11.90
2018-12-27T01:55:45.480Z,11.97
2018-12-27T01:58:27.702Z,10.63
2018-12-27T02:01:09.758Z,12.70
2018-12-27T02:03:51.734Z,12.73
2018-12-27T02:06:33.730Z,12.90
2018-12-27T02:09:15.417Z,11.80
2018-12-27T02:11:57.270Z,13.00
2018-12-27T02:14:39.824Z,11.03
2018-12-27T02:17:22.242Z,11.87
2018-12-27T02:20:03.958Z,12.13
2018-12-27T02:22:45.990Z,10.87
2018-12-27T02:25:28.589Z,10.73
2018-12-27T02:28:11.066Z,13.63
2018-12-27T02:30:53.191Z,12.97
2018-12-27T02:33:35.620Z,11.77
2018-12-27T02:36:17.934Z,11.77
2018-12-27T02:38:59.986Z,11.50
2018-12-27T02:41:41.913Z,10.20
2018-12-27T02:44:24.538Z,11.30
2018-12-27T02:47:06.295Z,12.33
2018-12-27T02:49:48.287Z,11.93
2018-12-27T02:52:30.162Z,12.67
2018-12-27T02:55:12.476Z,13.77
2018-12-27T02:57:54.886Z,12.60
2018-12-27T03:00:36.949Z,14.30
2018-12-27T03:03:19.415Z,11.80
2018-12-27T03:06:01.793Z,11.53
2018-12-27T03:08:43.854Z,14.37
2018-12-27T03:11:25.735Z,14.27
2018-12-27T03:14:07.774Z,13.67
2018-12-27T03:16:49.834Z,15.57
2018-12-27T03:19:31.838Z,13.23
2018-12-27T03:22:13.998Z,12.40
2018-12-27T03:24:56.474Z,12.80
2018-12-27T03:27:38.445Z,13.77
2018-12-27T03:30:20.773Z,13.50
2018-12-27T03:33:02.949Z,12.10
2018-12-27T03:35:44.780Z,12.60
2018-12-27T03:38:26.888Z,12.00
2018-12-27T03:41:09.415Z,13.67
2018-12-27T03:43:51.815Z,12.30
2018-12-27T03:46:33.557Z,11.77
2018-12-27T03:49:16.035Z,12.47
2018-12-27T03:51:58.158Z,11.60
2018-12-27T03:54:40.404Z,13.60
2018-12-27T03:57:22.387Z,12.50
2018-12-27T04:00:04.234Z,13.40
2018-12-27T04:02:46.702Z,13.20
2018-12-27T04:05:28.567Z,12.77
2018-12-27T04:08:10.655Z,14.10
2018-12-27T04:10:53.022Z,14.43
2018-12-27T04:13:35.637Z,16.30
2018-12-27T04:16:17.568Z,12.43
2018-12-27T04:18:59.483Z,12.87
2018-12-27T04:21:41.487Z,13.07
2018-12-27T04:24:23.784Z,12.53
2018-12-27T04:27:06.312Z,12.27
2018-12-27T04:29:48.094Z,12.60
2018-12-27T04:32:30.720Z,13.50
2018-12-27T04:35:12.851Z,11.90
2018-12-27T04:37:54.850Z,12.93
2018-12-27T04:40:36.830Z,12.40
2018-12-27T04:43:18.567Z,13.93
2018-12-27T04:46:00.514Z,12.00
2018-12-27T04:48:42.431Z,13.33
2018-12-27T04:51:24.273Z,12.80
2018-12-27T04:54:06.006Z,12.23
2018-12-27T04:56:48.409Z,13.47
2018-12-27T04:59:30.650Z,13.00
2018-12-27T05:02:12.762Z,14.37
2018-12-27T05:04:54.920Z,12.33
2018-12-27T05:07:36.965Z,12.90
2018-12-27T05:10:19.331Z,12.20
2018-12-27T05:13:01.751Z,13.33
2018-12-27T05:15:43.819Z,13.30
2018-12-27T05:18:26.558Z,13.67
2018-12-27T05:21:08.322Z,14.20
2018-12-27T05:23:50.785Z,12.93
2018-12-27T05:26:33.118Z,13.40
2018-12-27T05:29:15.332Z,15.13
2018-12-27T05:31:57.047Z,15.77
2018-12-27T05:34:38.983Z,13.07
2018-12-27T05:37:20.926Z,14.27
2018-12-27T05:40:03.406Z,13.07
2018-12-27T05:42:46.032Z,14.97
2018-12-27T05:45:28.262Z,12.60
2018-12-27T05:48:10.094Z,16.07
2018-12-27T05:50:51.867Z,12.50
2018-12-27T05:53:33.775Z,13.10
2018-12-27T05:56:15.742Z,13.27
2018-12-27T05:58:57.594Z,14.50
2018-12-27T06:01:39.894Z,14.27
2018-12-27T06:04:21.774Z,14.87
2018-12-27T06:07:03.524Z,13.30
2018-12-27T06:09:45.303Z,12.97
2018-12-27T06:12:27.233Z,13.60
2018-12-27T06:15:09.719Z,11.80
2018-12-27T06:17:51.903Z,11.87
2018-12-27T06:20:34.102Z,14.30
2018-12-27T06:23:16.350Z,12.40
2018-12-27T06:25:58.541Z,12.57
2018-12-27T06:28:40.819Z,18.63
2018-12-27T06:31:23.487Z,16.23
2018-12-27T06:34:05.466Z,14.93
2018-12-27T06:36:47.657Z,10.83
2018-12-27T06:39:29.623Z,12.43
2018-12-27T06:42:12.543Z,15.17
2018-12-27T06:44:55.110Z,14.70
2018-12-27T06:47:36.984Z,13.03
2018-12-27T06:50:18.753Z,15.10
2018-12-27T06:53:00.502Z,12.73
2018-12-27T06:55:42.782Z,14.53
2018-12-27T06:58:24.519Z,13.13
2018-12-27T07:01:07.145Z,13.47
2018-12-27T07:03:49.292Z,14.20
2018-12-27T07:06:31.279Z,14.67
2018-12-27T07:09:13.474Z,13.33
2018-12-27T07:11:56.392Z,13.20
2018-12-27T07:14:38.578Z,14.10
2018-12-27T07:17:20.910Z,14.57
2018-12-27T07:20:02.647Z,13.47
2018-12-27T07:22:44.802Z,11.60
2018-12-27T07:25:26.682Z,12.50
2018-12-27T07:28:08.905Z,16.00
2018-12-27T07:30:51.393Z,12.73
2018-12-27T07:33:33.290Z,12.47
2018-12-27T07:36:15.583Z,12.47
2018-12-27T07:38:57.382Z,12.53
2018-12-27T07:41:39.482Z,11.93
2018-12-27T07:44:22.085Z,13.63
2018-12-27T07:47:05.579Z,12.17
2018-12-27T07:49:47.861Z,11.70
2018-12-27T07:52:29.825Z,11.40
2018-12-27T07:55:12.026Z,10.90
2018-12-27T07:57:53.934Z,13.40
2018-12-27T08:00:35.798Z,11.80
2018-12-27T08:03:18.358Z,11.40
2018-12-27T08:06:00.241Z,13.60
2018-12-27T08:08:42.318Z,11.53
2018-12-27T08:11:24.573Z,11.60
2018-12-27T08:14:07.620Z,25.23
2018-12-27T08:16:50.397Z,19.20
2018-12-27T08:19:32.634Z,14.70
2018-12-27T08:22:14.423Z,14.30
2018-12-27T08:24:56.890Z,12.57
2018-12-27T08:27:39.065Z,12.57
2018-12-27T08:30:21.126Z,13.87
2018-12-27T08:33:02.886Z,13.20
2018-12-27T08:35:44.587Z,13.90
2018-12-27T08:38:26.731Z,18.10
2018-12-27T08:41:08.942Z,17.23
2018-12-27T08:43:51.359Z,14.97
2018-12-27T08:46:33.734Z,13.57
2018-12-27T08:49:16.047Z,12.93
2018-12-27T08:51:58.670Z,14.03
2018-12-27T08:54:40.365Z,13.67
2018-12-27T08:57:22.446Z,11.87
2018-12-27T09:00:04.514Z,14.70
2018-12-27T09:02:46.710Z,12.03
2018-12-27T09:05:28.347Z,15.30
2018-12-27T09:08:10.175Z,13.30
2018-12-27T09:10:51.931Z,13.53
2018-12-27T09:13:34.646Z,13.77
2018-12-27T09:16:16.907Z,12.03
2018-12-27T09:18:58.897Z,16.17
2018-12-27T09:21:40.896Z,13.03
2018-12-27T09:24:22.925Z,19.23
2018-12-27T09:27:05.050Z,15.07
2018-12-27T09:29:47.065Z,13.57
2018-12-27T09:32:29.026Z,11.90
2018-12-27T09:35:11.501Z,11.90
2018-12-27T09:37:53.954Z,12.50
2018-12-27T09:40:36.214Z,12.00
2018-12-27T09:43:18.451Z,12.63
2018-12-27T09:46:00.846Z,12.60
2018-12-27T09:48:43.269Z,13.00
2018-12-27T09:51:25.787Z,14.60
2018-12-27T09:54:07.709Z,14.00
2018-12-27T09:56:50.106Z,13.40
2018-12-27T09:59:32.133Z,15.07
2018-12-27T10:02:14.066Z,14.13
2018-12-27T10:04:56.610Z,14.67
2018-12-27T10:07:39.039Z,15.60
2018-12-27T10:10:21.374Z,15.60
2018-12-27T10:13:04.074Z,12.47
2018-12-27T10:15:46.314Z,12.70
2018-12-27T10:18:28.570Z,12.07
2018-12-27T10:21:10.373Z,15.57
2018-12-27T10:23:52.610Z,15.33
2018-12-27T10:26:34.288Z,13.20
2018-12-27T10:29:16.527Z,13.40
2018-12-27T10:31:59.143Z,13.23
2018-12-27T10:34:40.874Z,13.70
2018-12-27T10:37:23.314Z,12.03
2018-12-27T10:40:05.386Z,11.00
2018-12-27T10:42:47.254Z,12.20
2018-12-27T10:45:29.559Z,12.53
2018-12-27T10:48:11.742Z,13.20
2018-12-27T10:50:55.520Z,15.13
2018-12-27T10:53:37.575Z,16.03
2018-12-27T10:56:19.539Z,15.50
2018-12-27T10:59:01.238Z,13.63
2018-12-27T11:01:43.651Z,13.03
2018-12-27T11:04:26.005Z,11.27
2018-12-27T11:07:08.299Z,12.60
2018-12-27T11:09:50.023Z,12.20
2018-12-27T11:12:31.894Z,13.40
2018-12-27T11:15:13.699Z,12.87
2018-12-27T11:17:55.600Z,12.23
2018-12-27T11:20:38.146Z,12.27
2018-12-27T11:23:20.302Z,12.77
2018-12-27T11:26:02.294Z,14.00
2018-12-27T11:28:44.111Z,12.03
2018-12-27T11:31:26.501Z,14.67
2018-12-27T11:34:08.390Z,12.37
2018-12-27T11:36:50.098Z,11.27
2018-12-27T11:39:32.205Z,9.57
2018-12-27T11:42:14.523Z,10.87
2018-12-27T11:44:56.355Z,12.03
2018-12-27T11:47:38.037Z,13.30
2018-12-27T11:50:20.242Z,10.87
2018-12-27T11:53:02.638Z,12.13
2018-12-27T11:55:45.010Z,14.03
2018-12-27T11:58:27.166Z,12.10
2018-12-27T12:01:09.338Z,12.77
2018-12-27T12:03:51.303Z,12.57
2018-12-27T12:06:33.918Z,11.40
2018-12-27T12:09:15.841Z,10.93
2018-12-27T12:11:57.702Z,10.73
2018-12-27T12:14:39.878Z,11.50
2018-12-27T12:17:21.813Z,11.10
2018-12-27T12:20:03.774Z,12.40
2018-12-27T12:22:45.666Z,11.03
2018-12-27T12:25:27.379Z,12.17
2018-12-27T12:28:09.406Z,11.70
2018-12-27T12:30:51.911Z,11.67
2018-12-27T12:33:33.870Z,11.40
2018-12-27T12:36:15.574Z,10.60
2018-12-27T12:38:57.611Z,11.73
2018-12-27T12:41:39.315Z,11.40
2018-12-27T12:44:22.058Z,12.30
2018-12-27T12:47:04.645Z,11.77
2018-12-27T12:49:46.626Z,11.63
2018-12-27T12:52:29.176Z,11.50
2018-12-27T12:55:11.434Z,13.30
2018-12-27T12:57:54.014Z,12.27
2018-12-27T13:00:36.079Z,14.93
2018-12-27T13:03:18.306Z,12.93
2018-12-27T13:06:00.278Z,13.97
2018-12-27T13:08:42.230Z,12.13
2018-12-27T13:11:24.686Z,13.20
2018-12-27T13:14:06.547Z,13.60
2018-12-27T13:16:48.434Z,13.23
2018-12-27T13:19:30.897Z,14.87
2018-12-27T13:22:12.650Z,15.10
2018-12-27T13:24:54.731Z,13.80
2018-12-27T13:27:36.604Z,12.40
2018-12-27T13:30:18.826Z,11.33
2018-12-27T13:33:00.686Z,14.03
2018-12-27T13:35:42.586Z,12.13
2018-12-27T13:38:24.678Z,11.20
2018-12-27T13:41:06.552Z,11.70
2018-12-27T13:43:48.725Z,10.20
2018-12-27T13:46:30.520Z,13.03
2018-12-27T13:49:13.101Z,13.53
2018-12-27T13:51:55.186Z,12.50
2018-12-27T13:54:37.403Z,12.97
2018-12-27T13:57:19.166Z,13.90
2018-12-27T14:00:01.055Z,12.73
2018-12-27T14:02:42.954Z,14.80
2018-12-27T14:05:24.682Z,13.63
2018-12-27T14:08:06.915Z,11.73
2018-12-27T14:10:49.495Z,12.50
2018-12-27T14:13:31.654Z,11.53
2018-12-27T14:16:13.882Z,11.30
2018-12-27T14:18:55.738Z,13.47
2018-12-27T14:21:37.975Z,11.80
2018-12-27T14:24:19.863Z,23.40
2018-12-27T14:27:02.567Z,17.50
2018-12-27T14:29:44.614Z,14.37
2018-12-27T14:32:26.658Z,13.10
2018-12-27T14:35:09.191Z,13.33
2018-12-27T14:37:51.955Z,15.27
2018-12-27T14:40:34.054Z,14.87
2018-12-27T14:43:16.514Z,12.97
2018-12-27T14:45:58.782Z,11.83
2018-12-27T14:48:40.800Z,14.77
2018-12-27T14:51:22.538Z,12.43
2018-12-27T14:54:04.690Z,13.43
2018-12-27T14:56:46.610Z,12.33
2018-12-27T14:59:28.922Z,10.63
2018-12-27T15:02:11.354Z,12.07
2018-12-27T15:04:53.347Z,13.57
2018-12-27T15:07:35.545Z,13.37
2018-12-27T15:10:17.494Z,12.50
2018-12-27T15:12:59.337Z,12.13
2018-12-27T15:15:41.486Z,12.50
2018-12-27T15:18:23.846Z,12.97
2018-12-27T15:21:06.631Z,13.07
2018-12-27T15:23:48.417Z,13.90
2018-12-27T15:26:30.454Z,12.97
2018-12-27T15:29:12.510Z,16.90
2018-12-27T15:31:54.602Z,15.70
2018-12-27T15:34:36.622Z,14.53
2018-12-27T15:37:19.231Z,13.20
2018-12-27T15:40:00.926Z,14.10
2018-12-27T15:42:43.362Z,14.50
2018-12-27T15:45:26.108Z,15.10
2018-12-27T15:48:08.567Z,14.43
2018-12-27T15:50:50.495Z,13.10
2018-12-27T15:53:32.242Z,12.73
2018-12-27T15:56:13.974Z,14.73
2018-12-27T15:58:55.959Z,16.00
2018-12-27T16:01:37.766Z,18.00
2018-12-27T16:04:20.294Z,19.40
2018-12-27T16:07:02.548Z,19.83
2018-12-27T16:09:45.206Z,18.33
2018-12-27T16:12:26.965Z,14.50
2018-12-27T16:15:08.939Z,15.77
2018-12-27T16:17:51.054Z,15.17
2018-12-27T16:20:32.935Z,12.83
2018-12-27T16:23:15.939Z,14.67
2018-12-27T16:25:57.743Z,15.53
2018-12-27T16:28:39.770Z,13.33
2018-12-27T16:31:21.725Z,15.80
2018-12-27T16:34:04.251Z,15.80
2018-12-27T16:36:46.390Z,16.90
2018-12-27T16:39:28.806Z,15.97
2018-12-27T16:42:10.762Z,15.17
2018-12-27T16:44:53.341Z,13.57
2018-12-27T16:47:35.230Z,13.23
2018-12-27T16:50:17.209Z,14.30
2018-12-27T16:52:59.534Z,14.23
2018-12-27T16:55:41.858Z,13.40
2018-12-27T16:58:24.253Z,14.17
2018-12-27T17:01:06.838Z,13.03
2018-12-27T17:03:48.567Z,11.80
2018-12-27T17:06:30.298Z,14.23
2018-12-27T17:09:12.258Z,16.43
2018-12-27T17:11:54.254Z,14.37
2018-12-27T17:14:36.290Z,14.20
2018-12-27T17:17:18.803Z,13.73
2018-12-27T17:20:00.804Z,15.10
2018-12-27T17:22:42.733Z,14.17
2018-12-27T17:25:24.779Z,13.70
2018-12-27T17:28:07.005Z,14.23
2018-12-27T17:30:49.569Z,13.87
2018-12-27T17:33:31.415Z,14.33
2018-12-27T17:36:13.294Z,14.03
2018-12-27T17:38:55.038Z,13.03
2018-12-27T17:41:36.818Z,12.93
2018-12-27T17:44:19.542Z,12.87
2018-12-27T17:47:01.302Z,13.03
2018-12-27T17:49:43.474Z,14.30
2018-12-27T17:52:30.210Z,13.03
2018-12-27T17:55:09.582Z,14.40
2018-12-27T17:57:51.573Z,13.20
2018-12-27T18:00:33.287Z,13.70
2018-12-27T18:03:15.125Z,13.67
2018-12-27T18:05:57.320Z,15.00
2018-12-27T18:08:39.499Z,15.50
2018-12-27T18:11:21.798Z,15.00
2018-12-27T18:14:03.534Z,15.23
2018-12-27T18:16:45.710Z,14.40
2018-12-27T18:19:27.426Z,16.50
2018-12-27T18:22:09.922Z,15.83
2018-12-27T18:24:52.183Z,14.17
2018-12-27T18:27:34.019Z,15.30
2018-12-27T18:30:16.129Z,15.27
2018-12-27T18:32:59.290Z,17.13
2018-12-27T18:35:41.277Z,17.43
2018-12-27T18:38:23.939Z,18.70
2018-12-27T18:41:05.974Z,19.00
2018-12-27T18:43:48.366Z,20.13
2018-12-27T18:46:30.990Z,21.80
2018-12-27T18:49:20.503Z,21.27
2018-12-27T18:51:57.843Z,21.83
2018-12-27T18:54:47.826Z,22.17
2018-12-27T18:57:30.230Z,18.93
2018-12-27T19:00:11.922Z,17.10
2018-12-27T19:02:53.736Z,16.70
2018-12-27T19:05:35.622Z,17.30
2018-12-27T19:08:17.578Z,16.97
2018-12-27T19:10:59.903Z,17.00
2018-12-27T19:13:41.870Z,16.37
2018-12-27T19:16:23.604Z,15.37
2018-12-27T19:19:06.295Z,17.27
2018-12-27T19:40:34.867Z,18.47
2018-12-27T19:43:17.195Z,18.77
2018-12-27T19:45:59.462Z,19.47
2018-12-27T19:48:41.166Z,17.20
2018-12-27T19:51:22.862Z,18.37
2018-12-27T19:54:04.961Z,17.67
2018-12-27T19:56:46.906Z,17.20
2018-12-27T19:59:29.258Z,18.00
2018-12-27T20:02:11.326Z,15.20
2018-12-27T20:04:53.022Z,16.40
2018-12-27T20:07:35.162Z,17.43
2018-12-27T20:10:16.908Z,17.57
2018-12-27T20:12:58.834Z,17.10
2018-12-27T20:15:40.914Z,17.70
2018-12-27T20:18:23.623Z,17.43
2018-12-27T20:21:06.182Z,17.23
2018-12-27T20:23:48.239Z,16.60
2018-12-27T20:26:30.577Z,15.50
2018-12-27T20:29:13.243Z,15.50
2018-12-27T20:31:55.770Z,33.37
2018-12-27T20:34:37.862Z,23.80
2018-12-27T20:37:19.834Z,17.47
2018-12-27T20:40:01.585Z,16.77
2018-12-27T20:42:44.214Z,16.20
2018-12-27T20:45:26.883Z,14.97
2018-12-27T20:48:08.853Z,15.10
2018-12-27T20:50:52.002Z,13.10
2018-12-27T20:53:34.028Z,14.93
2018-12-27T20:56:15.803Z,15.07
2018-12-27T20:58:57.557Z,15.30
2018-12-27T21:01:40.202Z,18.30
2018-12-27T21:04:22.887Z,17.67
2018-12-27T21:07:04.972Z,19.17
2018-12-27T21:09:47.750Z,18.43
2018-12-27T21:12:30.315Z,18.30
2018-12-27T21:15:11.930Z,17.87
2018-12-27T21:17:54.362Z,17.93
2018-12-27T21:20:37.598Z,17.43
2018-12-27T21:23:19.578Z,16.80
2018-12-27T21:26:01.438Z,16.07
2018-12-27T21:28:44.007Z,13.97
2018-12-27T21:31:26.506Z,14.80
2018-12-27T21:34:08.911Z,15.03
2018-12-27T21:36:50.742Z,14.73
2018-12-27T21:39:36.399Z,15.43
2018-12-27T21:42:20.393Z,15.70
2018-12-27T21:45:02.298Z,16.37
2018-12-27T21:47:44.647Z,17.47
2018-12-27T21:50:26.594Z,17.40
2018-12-27T21:53:08.898Z,15.47
2018-12-27T21:55:51.208Z,16.20
2018-12-27T21:58:33.672Z,16.10
2018-12-27T22:01:16.075Z,15.80
2018-12-27T22:03:58.047Z,19.00
2018-12-27T22:06:40.219Z,16.47
2018-12-27T22:09:23.324Z,16.13
2018-12-27T22:12:06.396Z,17.13
2018-12-27T22:14:50.150Z,15.27
2018-12-27T22:17:33.816Z,16.00
2018-12-27T22:20:15.722Z,15.93
2018-12-27T22:22:58.486Z,16.03
2018-12-27T22:25:40.781Z,15.93
2018-12-27T22:28:22.777Z,16.77
2018-12-27T22:31:05.253Z,19.57
2018-12-27T22:33:50.353Z,17.57
2018-12-27T22:36:33.478Z,16.50
2018-12-27T22:39:16.075Z,18.23
2018-12-27T22:42:00.256Z,20.10
2018-12-27T22:44:43.172Z,14.73
2018-12-27T22:47:28.275Z,18.57
2018-12-27T22:50:10.961Z,17.27
2018-12-27T22:52:55.517Z,16.00
2018-12-27T22:55:38.706Z,16.37
2018-12-27T22:58:22.518Z,17.00
2018-12-27T23:01:06.547Z,17.10
2018-12-27T23:03:49.301Z,17.20
2018-12-27T23:06:31.970Z,15.37
2018-12-27T23:09:14.102Z,15.13
2018-12-27T23:11:55.847Z,17.27
2018-12-27T23:14:37.958Z,16.97
2018-12-27T23:17:19.779Z,16.90
2018-12-27T23:20:02.354Z,17.77
2018-12-27T23:22:44.590Z,18.70
2018-12-27T23:25:26.326Z,17.87
2018-12-27T23:28:08.914Z,15.30
2018-12-27T23:30:50.789Z,15.00
2018-12-27T23:33:32.889Z,15.40
2018-12-27T23:36:15.071Z,18.50
2018-12-27T23:38:57.230Z,17.40
2018-12-27T23:41:39.498Z,16.80
2018-12-27T23:44:21.778Z,17.33
2018-12-27T23:47:03.518Z,16.67
2018-12-27T23:49:45.730Z,16.63
2018-12-27T23:52:27.438Z,16.37
2018-12-27T23:55:09.551Z,16.57
2018-12-27T23:57:51.741Z,16.23
